M/V Harvest Bounty — WDB9157 — position and weather

sailwx.info

Track history (hours):
 
Tides and Currents Weather Stations Pressure Air Temp Water Temp Dewpoint Dewpoint Depression Visibility Wind Speed Wind Dir Waves Ship Positions

M/V Harvest Bounty

More information available from US FCC via Universal Licensing System and Coast Guard Vessel Documentation Center.

Last reported at 2014-Jul-10 04:31 UTC. Time now 2014-Jul-25 16:01 UTC.
Position N 29°57' W 090°19'.
Warning: this ship's position is 15 days out of date.

Length 18 m; draft 3.8 m.

Type: Towing. MMSI: 366970740.

Date/timePositionNaut miles runAvg speedWind from/ knotsBaromVisibWave heightAir tempDewpointWater temp
2014-Jul-10 04:31N 29°57' W 090°19'2 1.9
2014-Jul-10 03:33N 29°58' W 090°17'1 0.8
2014-Jul-10 02:33N 29°57' W 090°18'3 0.9
2014-Jul-09 23:33N 29°56' W 090°20'  
2014-Jul-06 13:29N 29°57' W 090°22'0 0.0
2014-Jul-06 12:33N 29°57' W 090°22'0 0.0
2014-Jul-06 11:33N 29°57' W 090°22'0 0.0
2014-Jul-06 10:33N 29°57' W 090°22'1 0.7
2014-Jul-06 09:32N 29°56' W 090°22'1 0.7
2014-Jul-06 08:05N 29°57' W 090°23'1 0.0
2014-Jul-05 09:09N 29°56' W 090°22'1 0.2
2014-Jul-05 02:23N 29°57' W 090°23'5 0.3
2014-Jul-04 11:18N 29°57' W 090°18'4 0.2
2014-Jul-03 11:28N 29°57' W 090°22'1 0.6
2014-Jul-03 10:30N 29°56' W 090°21'0 0.2
2014-Jul-03 09:33N 29°56' W 090°22'0 0.0
2014-Jul-03 08:33N 29°56' W 090°22'4 1.1
2014-Jul-03 05:06N 29°58' W 090°17'4 0.2
2014-Jul-02 09:21N 29°56' W 090°22'1 0.7
2014-Jul-02 08:28N 29°56' W 090°21'4 0.9
2014-Jul-02 04:23N 29°58' W 090°17'0 0.4
2014-Jul-02 03:30N 29°58' W 090°17'1 0.6
2014-Jul-02 01:28N 29°57' W 090°18'4 4.5
2014-Jul-02 00:33N 29°57' W 090°23'1 0.5
2014-Jul-01 23:11N 29°57' W 090°22'3 0.2
2014-Jul-01 12:16N 29°57' W 090°19'2 2.1
2014-Jul-01 11:17N 29°58' W 090°17'4 4.5
2014-Jul-01 10:23N 29°56' W 090°21'0 0.2
2014-Jul-01 09:22N 29°56' W 090°22'0 0.4
2014-Jul-01 08:30N 29°57' W 090°22'0 0.0
2014-Jul-01 07:33N 29°57' W 090°22'0 0.0
2014-Jul-01 06:33N 29°57' W 090°22'0 0.0
2014-Jul-01 05:25N 29°57' W 090°22'1 1.4
2014-Jul-01 04:28N 29°56' W 090°21'3 2.9
2014-Jul-01 03:33N 29°57' W 090°18'1 0.5
2014-Jul-01 02:33N 29°58' W 090°17'2 2.1
2014-Jul-01 01:33N 29°56' W 090°19'2 2.0
2014-Jul-01 00:25N 29°56' W 090°22'1 1.1
2014-Jun-30 23:27N 29°56' W 090°21'2 2.4
2014-Jun-30 22:28N 29°57' W 090°18'3 0.3
2014-Jun-30 10:30N 29°56' W 090°21'0 0.2
2014-Jun-30 09:24N 29°56' W 090°22'0 0.0
2014-Jun-30 08:29N 29°56' W 090°22'2 2.4
2014-Jun-30 07:27N 29°57' W 090°19'0 0.0
2014-Jun-30 05:29N 29°57' W 090°19'  
Track history (hours):
 
Tides and Currents Weather Stations Pressure Air Temp Water Temp Dewpoint Dewpoint Depression Visibility Wind Speed Wind Dir Waves Ship Positions

M/V Harvest Bounty

More information available from US FCC via Universal Licensing System and Coast Guard Vessel Documentation Center.

Last reported at 2014-Jul-10 04:31 UTC. Time now 2014-Jul-25 16:01 UTC.
Position N 29°57' W 090°19'.
Warning: this ship's position is 15 days out of date.

Length 18 m; draft 3.8 m.

Type: Towing. MMSI: 366970740.

Date/timePositionNaut miles runAvg speedWind from/ knotsBaromVisibWave heightAir tempDewpointWater temp
2014-Jul-10 04:31N 29°57' W 090°19'2 1.9
2014-Jul-10 03:33N 29°58' W 090°17'1 0.8
2014-Jul-10 02:33N 29°57' W 090°18'3 0.9
2014-Jul-09 23:33N 29°56' W 090°20'  
2014-Jul-06 13:29N 29°57' W 090°22'0 0.0
2014-Jul-06 12:33N 29°57' W 090°22'0 0.0
2014-Jul-06 11:33N 29°57' W 090°22'0 0.0
2014-Jul-06 10:33N 29°57' W 090°22'1 0.7
2014-Jul-06 09:32N 29°56' W 090°22'1 0.7
2014-Jul-06 08:05N 29°57' W 090°23'1 0.0
2014-Jul-05 09:09N 29°56' W 090°22'1 0.2
2014-Jul-05 02:23N 29°57' W 090°23'5 0.3
2014-Jul-04 11:18N 29°57' W 090°18'4 0.2
2014-Jul-03 11:28N 29°57' W 090°22'1 0.6
2014-Jul-03 10:30N 29°56' W 090°21'0 0.2
2014-Jul-03 09:33N 29°56' W 090°22'0 0.0
2014-Jul-03 08:33N 29°56' W 090°22'4 1.1
2014-Jul-03 05:06N 29°58' W 090°17'4 0.2
2014-Jul-02 09:21N 29°56' W 090°22'1 0.7
2014-Jul-02 08:28N 29°56' W 090°21'4 0.9
2014-Jul-02 04:23N 29°58' W 090°17'0 0.4
2014-Jul-02 03:30N 29°58' W 090°17'1 0.6
2014-Jul-02 01:28N 29°57' W 090°18'4 4.5
2014-Jul-02 00:33N 29°57' W 090°23'1 0.5
2014-Jul-01 23:11N 29°57' W 090°22'3 0.2
2014-Jul-01 12:16N 29°57' W 090°19'2 2.1
2014-Jul-01 11:17N 29°58' W 090°17'4 4.5
2014-Jul-01 10:23N 29°56' W 090°21'0 0.2
2014-Jul-01 09:22N 29°56' W 090°22'0 0.4
2014-Jul-01 08:30N 29°57' W 090°22'0 0.0
2014-Jul-01 07:33N 29°57' W 090°22'0 0.0
2014-Jul-01 06:33N 29°57' W 090°22'0 0.0
2014-Jul-01 05:25N 29°57' W 090°22'1 1.4
2014-Jul-01 04:28N 29°56' W 090°21'3 2.9
2014-Jul-01 03:33N 29°57' W 090°18'1 0.5
2014-Jul-01 02:33N 29°58' W 090°17'2 2.1
2014-Jul-01 01:33N 29°56' W 090°19'2 2.0
2014-Jul-01 00:25N 29°56' W 090°22'1 1.1
2014-Jun-30 23:27N 29°56' W 090°21'2 2.4
2014-Jun-30 22:28N 29°57' W 090°18'3 0.3
2014-Jun-30 10:30N 29°56' W 090°21'0 0.2
2014-Jun-30 09:24N 29°56' W 090°22'0 0.0
2014-Jun-30 08:29N 29°56' W 090°22'2 2.4
2014-Jun-30 07:27N 29°57' W 090°19'0 0.0
2014-Jun-30 05:29N 29°57' W 090°19'  

Dump ship's entire track history